sensor_id;sensor_type;location;lat;lon;timestamp;pressure;altitude;pressure_sealevel;temperature;humidity
65880;BME280;52661;51.364;6.054;2023-03-20T00:00:32;101612.22;;;9.74;100.00
65880;BME280;52661;51.364;6.054;2023-03-20T00:02:58;101616.91;;;9.77;100.00
65880;BME280;52661;51.364;6.054;2023-03-20T00:05:25;101626.63;;;9.78;100.00
65880;BME280;52661;51.364;6.054;2023-03-20T00:07:52;101621.59;;;9.76;100.00
65880;BME280;52661;51.364;6.054;2023-03-20T00:10:18;101621.22;;;9.78;100.00
65880;BME280;52661;51.364;6.054;2023-03-20T00:12:46;101619.91;;;9.91;100.00
65880;BME280;52661;51.364;6.054;2023-03-20T00:15:35;101618.94;;;9.80;100.00
65880;BME280;52661;51.364;6.054;2023-03-20T00:18:03;101623.75;;;9.90;100.00
65880;BME280;52661;51.364;6.054;2023-03-20T00:20:28;101620.59;;;9.88;100.00
65880;BME280;52661;51.364;6.054;2023-03-20T00:22:54;101617.81;;;9.84;100.00
65880;BME280;52661;51.364;6.054;2023-03-20T00:25:22;101621.72;;;9.83;100.00
65880;BME280;52661;51.364;6.054;2023-03-20T00:27:48;101612.91;;;9.90;100.00
65880;BME280;52661;51.364;6.054;2023-03-20T00:32:46;101616.97;;;9.80;100.00
65880;BME280;52661;51.364;6.054;2023-03-20T00:37:48;101615.31;;;9.72;100.00
65880;BME280;52661;51.364;6.054;2023-03-20T00:40:14;101615.81;;;9.59;100.00
65880;BME280;52661;51.364;6.054;2023-03-20T00:42:40;101608.84;;;9.58;100.00
65880;BME280;52661;51.364;6.054;2023-03-20T00:45:12;101604.41;;;9.69;100.00
65880;BME280;52661;51.364;6.054;2023-03-20T00:47:39;101610.84;;;9.61;100.00
65880;BME280;52661;51.364;6.054;2023-03-20T00:50:28;101603.78;;;9.56;100.00
65880;BME280;52661;51.364;6.054;2023-03-20T00:52:55;101599.00;;;9.50;100.00
65880;BME280;52661;51.364;6.054;2023-03-20T00:55:23;101590.34;;;9.63;100.00
65880;BME280;52661;51.364;6.054;2023-03-20T00:57:55;101585.94;;;9.55;100.00
65880;BME280;52661;51.364;6.054;2023-03-20T01:00:36;101589.03;;;9.54;100.00
65880;BME280;52661;51.364;6.054;2023-03-20T01:03:23;101585.31;;;9.62;100.00
65880;BME280;52661;51.364;6.054;2023-03-20T01:05:49;101585.78;;;9.67;100.00
65880;BME280;52661;51.364;6.054;2023-03-20T01:08:18;101578.06;;;9.47;100.00
65880;BME280;52661;51.364;6.054;2023-03-20T01:10:45;101570.41;;;9.52;100.00
65880;BME280;52661;51.364;6.054;2023-03-20T01:13:16;101560.34;;;9.53;100.00
65880;BME280;52661;51.364;6.054;2023-03-20T01:15:43;101560.19;;;9.65;100.00
65880;BME280;52661;51.364;6.054;2023-03-20T01:18:12;101564.38;;;9.62;100.00
65880;BME280;52661;51.364;6.054;2023-03-20T01:20:37;101570.34;;;9.71;100.00
65880;BME280;52661;51.364;6.054;2023-03-20T01:23:03;101572.66;;;9.69;100.00
65880;BME280;52661;51.364;6.054;2023-03-20T01:25:28;101582.41;;;9.51;100.00
65880;BME280;52661;51.364;6.054;2023-03-20T01:27:54;101577.88;;;9.59;100.00
65880;BME280;52661;51.364;6.054;2023-03-20T01:30:24;101573.00;;;9.68;100.00
65880;BME280;52661;51.364;6.054;2023-03-20T01:32:49;101576.13;;;9.70;100.00
65880;BME280;52661;51.364;6.054;2023-03-20T01:35:18;101576.75;;;9.82;100.00
65880;BME280;52661;51.364;6.054;2023-03-20T01:37:44;101593.25;;;9.74;100.00
65880;BME280;52661;51.364;6.054;2023-03-20T01:40:38;101604.28;;;9.62;100.00
65880;BME280;52661;51.364;6.054;2023-03-20T01:43:18;101603.78;;;9.56;100.00
65880;BME280;52661;51.364;6.054;2023-03-20T01:46:01;101604.56;;;9.57;100.00
65880;BME280;52661;51.364;6.054;2023-03-20T01:51:18;101594.72;;;9.49;100.00
65880;BME280;52661;51.364;6.054;2023-03-20T01:53:45;101593.94;;;9.48;100.00
65880;BME280;52661;51.364;6.054;2023-03-20T01:56:14;101595.88;;;9.48;100.00
65880;BME280;52661;51.364;6.054;2023-03-20T01:58:46;101604.38;;;9.46;100.00
65880;BME280;52661;51.364;6.054;2023-03-20T02:01:12;101613.22;;;9.24;100.00
65880;BME280;52661;51.364;6.054;2023-03-20T02:03:41;101612.09;;;9.25;100.00
65880;BME280;52661;51.364;6.054;2023-03-20T02:06:08;101618.00;;;9.30;100.00
65880;BME280;52661;51.364;6.054;2023-03-20T02:08:43;101603.09;;;9.40;100.00
65880;BME280;52661;51.364;6.054;2023-03-20T02:11:11;101581.34;;;9.36;100.00
65880;BME280;52661;51.364;6.054;2023-03-20T02:13:37;101581.03;;;9.42;100.00
65880;BME280;52661;51.364;6.054;2023-03-20T02:16:05;101587.25;;;9.42;100.00
65880;BME280;52661;51.364;6.054;2023-03-20T02:18:32;101603.22;;;9.47;100.00
65880;BME280;52661;51.364;6.054;2023-03-20T02:27:10;101594.19;;;9.39;100.00
65880;BME280;52661;51.364;6.054;2023-03-20T02:43:19;101565.31;;;9.28;100.00
65880;BME280;52661;51.364;6.054;2023-03-20T02:45:53;101572.84;;;9.38;100.00
65880;BME280;52661;51.364;6.054;2023-03-20T02:51:32;101579.66;;;9.28;100.00
65880;BME280;52661;51.364;6.054;2023-03-20T02:54:05;101587.06;;;9.31;100.00
65880;BME280;52661;51.364;6.054;2023-03-20T02:59:07;101598.09;;;9.23;100.00
65880;BME280;52661;51.364;6.054;2023-03-20T03:01:46;101612.59;;;9.11;100.00
65880;BME280;52661;51.364;6.054;2023-03-20T03:04:21;101619.13;;;8.91;100.00
65880;BME280;52661;51.364;6.054;2023-03-20T03:06:49;101610.94;;;8.87;100.00
65880;BME280;52661;51.364;6.054;2023-03-20T03:09:22;101607.34;;;8.83;100.00
65880;BME280;52661;51.364;6.054;2023-03-20T03:12:03;101601.16;;;8.83;100.00
65880;BME280;52661;51.364;6.054;2023-03-20T03:14:41;101592.53;;;8.77;100.00
65880;BME280;52661;51.364;6.054;2023-03-20T03:17:09;101597.16;;;8.77;100.00
65880;BME280;52661;51.364;6.054;2023-03-20T03:19:38;101600.53;;;8.89;100.00
65880;BME280;52661;51.364;6.054;2023-03-20T03:22:06;101589.56;;;8.82;100.00
65880;BME280;52661;51.364;6.054;2023-03-20T03:24:34;101589.03;;;8.77;100.00
65880;BME280;52661;51.364;6.054;2023-03-20T03:27:03;101589.31;;;8.72;100.00
65880;BME280;52661;51.364;6.054;2023-03-20T03:29:33;101581.41;;;8.63;100.00
65880;BME280;52661;51.364;6.054;2023-03-20T03:32:02;101578.25;;;8.61;100.00
65880;BME280;52661;51.364;6.054;2023-03-20T03:34:30;101573.84;;;8.53;100.00
65880;BME280;52661;51.364;6.054;2023-03-20T03:40:06;101572.69;;;8.54;100.00
65880;BME280;52661;51.364;6.054;2023-03-20T03:42:41;101562.66;;;8.55;100.00
65880;BME280;52661;51.364;6.054;2023-03-20T03:45:25;101557.00;;;8.44;100.00
65880;BME280;52661;51.364;6.054;2023-03-20T03:47:55;101558.84;;;8.40;100.00
65880;BME280;52661;51.364;6.054;2023-03-20T03:50:38;101560.59;;;8.48;100.00
65880;BME280;52661;51.364;6.054;2023-03-20T03:53:11;101552.72;;;8.43;100.00
65880;BME280;52661;51.364;6.054;2023-03-20T03:55:41;101560.84;;;8.43;100.00
65880;BME280;52661;51.364;6.054;2023-03-20T03:58:14;101556.59;;;8.42;100.00
65880;BME280;52661;51.364;6.054;2023-03-20T04:00:42;101550.31;;;8.38;100.00
65880;BME280;52661;51.364;6.054;2023-03-20T04:03:09;101549.13;;;8.35;100.00
65880;BME280;52661;51.364;6.054;2023-03-20T04:05:40;101545.97;;;8.33;100.00
65880;BME280;52661;51.364;6.054;2023-03-20T04:08:06;101547.97;;;8.21;100.00
65880;BME280;52661;51.364;6.054;2023-03-20T04:10:32;101547.91;;;8.17;100.00
65880;BME280;52661;51.364;6.054;2023-03-20T04:12:57;101552.78;;;8.12;100.00
65880;BME280;52661;51.364;6.054;2023-03-20T04:15:23;101555.66;;;8.03;100.00
65880;BME280;52661;51.364;6.054;2023-03-20T04:17:48;101544.75;;;8.15;100.00
65880;BME280;52661;51.364;6.054;2023-03-20T04:20:14;101552.69;;;8.08;100.00
65880;BME280;52661;51.364;6.054;2023-03-20T04:22:40;101561.06;;;8.03;100.00
65880;BME280;52661;51.364;6.054;2023-03-20T04:25:08;101555.41;;;7.92;100.00
65880;BME280;52661;51.364;6.054;2023-03-20T04:27:34;101547.13;;;7.85;100.00
65880;BME280;52661;51.364;6.054;2023-03-20T04:29:59;101545.75;;;7.91;100.00
65880;BME280;52661;51.364;6.054;2023-03-20T04:32:24;101541.97;;;7.96;100.00
65880;BME280;52661;51.364;6.054;2023-03-20T04:34:50;101548.88;;;7.93;100.00
65880;BME280;52661;51.364;6.054;2023-03-20T04:37:17;101539.47;;;7.87;100.00
65880;BME280;52661;51.364;6.054;2023-03-20T04:39:42;101544.41;;;7.85;100.00
65880;BME280;52661;51.364;6.054;2023-03-20T04:42:08;101544.44;;;7.70;100.00
65880;BME280;52661;51.364;6.054;2023-03-20T04:44:33;101546.69;;;7.83;100.00
65880;BME280;52661;51.364;6.054;2023-03-20T04:47:00;101542.59;;;7.89;100.00
65880;BME280;52661;51.364;6.054;2023-03-20T04:49:25;101546.78;;;7.71;100.00
65880;BME280;52661;51.364;6.054;2023-03-20T04:51:51;101540.94;;;7.54;100.00
65880;BME280;52661;51.364;6.054;2023-03-20T04:54:18;101541.56;;;7.63;100.00
65880;BME280;52661;51.364;6.054;2023-03-20T04:56:44;101544.50;;;7.58;100.00
65880;BME280;52661;51.364;6.054;2023-03-20T04:59:09;101545.63;;;7.57;100.00
65880;BME280;52661;51.364;6.054;2023-03-20T05:01:34;101544.44;;;7.70;100.00
65880;BME280;52661;51.364;6.054;2023-03-20T05:04:00;101548.78;;;7.59;100.00
65880;BME280;52661;51.364;6.054;2023-03-20T05:06:27;101539.19;;;7.61;100.00
65880;BME280;52661;51.364;6.054;2023-03-20T05:08:52;101533.00;;;7.61;100.00
65880;BME280;52661;51.364;6.054;2023-03-20T05:11:18;101514.97;;;7.65;100.00
65880;BME280;52661;51.364;6.054;2023-03-20T05:13:43;101515.50;;;7.70;100.00
65880;BME280;52661;51.364;6.054;2023-03-20T05:16:08;101520.38;;;7.65;100.00
65880;BME280;52661;51.364;6.054;2023-03-20T05:18:34;101519.25;;;7.66;100.00
65880;BME280;52661;51.364;6.054;2023-03-20T05:20:59;101521.69;;;7.55;100.00
65880;BME280;52661;51.364;6.054;2023-03-20T05:23:25;101534.50;;;7.58;100.00
65880;BME280;52661;51.364;6.054;2023-03-20T05:25:51;101538.06;;;7.62;100.00
65880;BME280;52661;51.364;6.054;2023-03-20T05:28:16;101535.97;;;7.56;100.00
65880;BME280;52661;51.364;6.054;2023-03-20T05:30:42;101534.50;;;7.58;100.00
65880;BME280;52661;51.364;6.054;2023-03-20T05:33:07;101536.75;;;7.56;100.00
65880;BME280;52661;51.364;6.054;2023-03-20T05:35:32;101541.75;;;7.70;100.00
65880;BME280;52661;51.364;6.054;2023-03-20T05:37:57;101537.69;;;7.64;100.00
65880;BME280;52661;51.364;6.054;2023-03-20T05:40:23;101537.53;;;7.57;100.00
65880;BME280;52661;51.364;6.054;2023-03-20T05:42:49;101536.16;;;7.63;100.00
65880;BME280;52661;51.364;6.054;2023-03-20T05:45:15;101543.03;;;7.60;100.00
65880;BME280;52661;51.364;6.054;2023-03-20T05:47:41;101536.31;;;7.54;100.00
65880;BME280;52661;51.364;6.054;2023-03-20T05:50:06;101537.38;;;7.65;100.00
65880;BME280;52661;51.364;6.054;2023-03-20T05:52:32;101537.44;;;7.53;100.00
65880;BME280;52661;51.364;6.054;2023-03-20T05:54:57;101531.19;;;7.65;100.00
65880;BME280;52661;51.364;6.054;2023-03-20T05:57:22;101538.41;;;7.45;100.00
65880;BME280;52661;51.364;6.054;2023-03-20T05:59:48;101527.16;;;7.43;100.00
65880;BME280;52661;51.364;6.054;2023-03-20T06:02:13;101528.09;;;7.35;100.00
65880;BME280;52661;51.364;6.054;2023-03-20T06:04:39;101528.97;;;7.39;100.00
65880;BME280;52661;51.364;6.054;2023-03-20T06:07:05;101532.13;;;7.41;100.00
65880;BME280;52661;51.364;6.054;2023-03-20T06:09:30;101534.13;;;7.60;100.00
65880;BME280;52661;51.364;6.054;2023-03-20T06:11:56;101534.13;;;7.60;100.00
65880;BME280;52661;51.364;6.054;2023-03-20T06:14:22;101532.56;;;7.59;100.00
65880;BME280;52661;51.364;6.054;2023-03-20T06:16:47;101554.19;;;7.74;100.00
65880;BME280;52661;51.364;6.054;2023-03-20T06:19:13;101550.25;;;7.56;100.00
65880;BME280;52661;51.364;6.054;2023-03-20T06:21:38;101553.91;;;7.64;100.00
65880;BME280;52661;51.364;6.054;2023-03-20T06:24:04;101558.91;;;7.77;100.00
65880;BME280;52661;51.364;6.054;2023-03-20T06:26:29;101562.09;;;7.67;100.00
65880;BME280;52661;51.364;6.054;2023-03-20T06:28:55;101565.25;;;7.69;100.00
65880;BME280;52661;51.364;6.054;2023-03-20T06:31:20;101567.59;;;7.71;100.00
65880;BME280;52661;51.364;6.054;2023-03-20T06:33:46;101569.53;;;7.70;100.00
65880;BME280;52661;51.364;6.054;2023-03-20T06:36:11;101573.34;;;7.85;100.00
65880;BME280;52661;51.364;6.054;2023-03-20T06:38:37;101570.75;;;7.73;100.00
65880;BME280;52661;51.364;6.054;2023-03-20T06:41:02;101574.84;;;7.67;100.00
65880;BME280;52661;51.364;6.054;2023-03-20T06:43:27;101573.88;;;7.75;100.00
65880;BME280;52661;51.364;6.054;2023-03-20T06:45:53;101575.19;;;7.65;100.00
65880;BME280;52661;51.364;6.054;2023-03-20T06:48:18;101567.00;;;7.62;100.00
65880;BME280;52661;51.364;6.054;2023-03-20T06:50:49;101565.88;;;7.63;100.00
65880;BME280;52661;51.364;6.054;2023-03-20T06:53:15;101574.16;;;7.70;100.00
65880;BME280;52661;51.364;6.054;2023-03-20T06:55:48;101582.72;;;7.87;100.00
65880;BME280;52661;51.364;6.054;2023-03-20T06:58:13;101592.81;;;7.75;100.00
65880;BME280;52661;51.364;6.054;2023-03-20T07:00:38;101591.75;;;7.79;100.00
65880;BME280;52661;51.364;6.054;2023-03-20T07:03:04;101593.44;;;7.84;100.00
65880;BME280;52661;51.364;6.054;2023-03-20T07:05:29;101602.59;;;7.95;100.00
65880;BME280;52661;51.364;6.054;2023-03-20T07:07:54;101600.84;;;7.87;100.00
65880;BME280;52661;51.364;6.054;2023-03-20T07:10:20;101609.03;;;7.90;100.00
65880;BME280;52661;51.364;6.054;2023-03-20T07:12:45;101611.41;;;7.92;100.00
65880;BME280;52661;51.364;6.054;2023-03-20T07:15:11;101608.78;;;7.96;100.00
65880;BME280;52661;51.364;6.054;2023-03-20T07:17:36;101608.78;;;7.80;100.00
65880;BME280;52661;51.364;6.054;2023-03-20T07:20:03;101604.66;;;7.70;100.00
65880;BME280;52661;51.364;6.054;2023-03-20T07:22:29;101607.38;;;7.86;100.00
65880;BME280;52661;51.364;6.054;2023-03-20T07:24:56;101619.22;;;7.97;100.00
65880;BME280;52661;51.364;6.054;2023-03-20T07:27:21;101614.72;;;8.01;100.00
65880;BME280;52661;51.364;6.054;2023-03-20T07:29:47;101610.34;;;8.12;100.00
65880;BME280;52661;51.364;6.054;2023-03-20T07:32:12;101617.06;;;8.18;100.00
65880;BME280;52661;51.364;6.054;2023-03-20T07:34:38;101622.47;;;8.03;100.00
65880;BME280;52661;51.364;6.054;2023-03-20T07:37:03;101611.31;;;8.20;100.00
65880;BME280;52661;51.364;6.054;2023-03-20T07:39:29;101618.72;;;8.23;100.00
65880;BME280;52661;51.364;6.054;2023-03-20T07:41:54;101630.06;;;8.28;100.00
65880;BME280;52661;51.364;6.054;2023-03-20T07:44:20;101622.63;;;8.25;100.00
65880;BME280;52661;51.364;6.054;2023-03-20T07:46:45;101624.19;;;8.26;100.00
65880;BME280;52661;51.364;6.054;2023-03-20T07:49:15;101628.03;;;8.25;100.00
65880;BME280;52661;51.364;6.054;2023-03-20T07:51:47;101627.56;;;8.35;100.00
65880;BME280;52661;51.364;6.054;2023-03-20T07:54:13;101618.38;;;8.40;100.00
65880;BME280;52661;51.364;6.054;2023-03-20T07:56:39;101633.31;;;8.34;100.00
65880;BME280;52661;51.364;6.054;2023-03-20T07:59:05;101643.16;;;8.42;100.00
65880;BME280;52661;51.364;6.054;2023-03-20T08:01:30;101634.25;;;8.42;100.00
65880;BME280;52661;51.364;6.054;2023-03-20T08:03:56;101634.34;;;8.45;100.00
65880;BME280;52661;51.364;6.054;2023-03-20T08:06:21;101626.41;;;8.21;100.00
65880;BME280;52661;51.364;6.054;2023-03-20T08:08:46;101632.66;;;8.25;100.00
65880;BME280;52661;51.364;6.054;2023-03-20T08:11:13;101630.75;;;8.25;100.00
65880;BME280;52661;51.364;6.054;2023-03-20T08:13:39;101632.44;;;8.30;100.00
65880;BME280;52661;51.364;6.054;2023-03-20T08:16:05;101621.63;;;8.30;100.00
65880;BME280;52661;51.364;6.054;2023-03-20T08:18:30;101621.78;;;8.37;100.00
65880;BME280;52661;51.364;6.054;2023-03-20T08:20:56;101625.28;;;8.37;100.00
65880;BME280;52661;51.364;6.054;2023-03-20T08:23:21;101628.16;;;8.45;100.00
65880;BME280;52661;51.364;6.054;2023-03-20T08:25:47;101632.34;;;8.42;100.00
65880;BME280;52661;51.364;6.054;2023-03-20T08:28:13;101634.59;;;8.40;100.00
65880;BME280;52661;51.364;6.054;2023-03-20T08:30:38;101624.94;;;8.39;100.00
65880;BME280;52661;51.364;6.054;2023-03-20T08:33:04;101630.34;;;8.39;100.00
65880;BME280;52661;51.364;6.054;2023-03-20T08:35:30;101629.09;;;8.52;100.00
65880;BME280;52661;51.364;6.054;2023-03-20T08:37:55;101628.94;;;8.45;100.00
65880;BME280;52661;51.364;6.054;2023-03-20T08:40:21;101632.75;;;8.44;100.00
65880;BME280;52661;51.364;6.054;2023-03-20T08:42:46;101637.47;;;8.47;100.00
65880;BME280;52661;51.364;6.054;2023-03-20T08:45:11;101636.59;;;8.43;100.00
65880;BME280;52661;51.364;6.054;2023-03-20T08:47:37;101635.91;;;8.46;100.00
65880;BME280;52661;51.364;6.054;2023-03-20T08:50:03;101638.78;;;8.53;100.00
65880;BME280;52661;51.364;6.054;2023-03-20T08:52:29;101642.06;;;8.62;100.00
65880;BME280;52661;51.364;6.054;2023-03-20T08:54:54;101643.13;;;8.58;100.00
65880;BME280;52661;51.364;6.054;2023-03-20T08:57:20;101641.84;;;8.52;100.00
65880;BME280;52661;51.364;6.054;2023-03-20T08:59:45;101637.91;;;8.49;100.00
65880;BME280;52661;51.364;6.054;2023-03-20T09:02:11;101633.53;;;8.60;100.00
65880;BME280;52661;51.364;6.054;2023-03-20T09:04:36;101630.59;;;8.50;100.00
65880;BME280;52661;51.364;6.054;2023-03-20T09:07:02;101629.63;;;8.42;100.00
65880;BME280;52661;51.364;6.054;2023-03-20T09:09:28;101631.25;;;8.62;100.00
65880;BME280;52661;51.364;6.054;2023-03-20T09:11:55;101624.75;;;8.82;100.00
65880;BME280;52661;51.364;6.054;2023-03-20T09:14:22;101626.00;;;8.69;100.00
65880;BME280;52661;51.364;6.054;2023-03-20T09:16:48;101628.63;;;8.66;100.00
65880;BME280;52661;51.364;6.054;2023-03-20T09:19:13;101633.22;;;8.81;100.00
65880;BME280;52661;51.364;6.054;2023-03-20T09:21:39;101634.28;;;8.76;100.00
65880;BME280;52661;51.364;6.054;2023-03-20T09:24:05;101637.66;;;8.89;100.00
65880;BME280;52661;51.364;6.054;2023-03-20T09:26:30;101638.63;;;8.81;100.00
65880;BME280;52661;51.364;6.054;2023-03-20T09:28:56;101632.94;;;8.86;100.00
65880;BME280;52661;51.364;6.054;2023-03-20T09:31:21;101641.00;;;8.82;100.00
65880;BME280;52661;51.364;6.054;2023-03-20T09:33:47;101643.81;;;8.70;100.00
65880;BME280;52661;51.364;6.054;2023-03-20T09:36:12;101636.41;;;8.86;100.00
65880;BME280;52661;51.364;6.054;2023-03-20T09:38:40;101644.94;;;8.69;100.00
65880;BME280;52661;51.364;6.054;2023-03-20T09:41:13;101634.19;;;8.73;100.00
65880;BME280;52661;51.364;6.054;2023-03-20T09:47:04;101640.94;;;8.98;100.00
65880;BME280;52661;51.364;6.054;2023-03-20T09:49:43;101646.59;;;8.74;100.00
65880;BME280;52661;51.364;6.054;2023-03-20T09:52:50;101645.53;;;8.78;100.00
65880;BME280;52661;51.364;6.054;2023-03-20T09:55:20;101642.13;;;8.81;100.00
65880;BME280;52661;51.364;6.054;2023-03-20T09:57:56;101641.59;;;8.76;100.00
65880;BME280;52661;51.364;6.054;2023-03-20T10:00:25;101649.47;;;8.81;100.00
65880;BME280;52661;51.364;6.054;2023-03-20T10:02:57;101646.78;;;9.00;100.00
65880;BME280;52661;51.364;6.054;2023-03-20T10:05:26;101646.72;;;8.97;100.00
65880;BME280;52661;51.364;6.054;2023-03-20T10:07:57;101646.56;;;8.89;100.00
65880;BME280;52661;51.364;6.054;2023-03-20T10:10:34;101642.75;;;8.75;100.00
65880;BME280;52661;51.364;6.054;2023-03-20T10:18:53;101634.41;;;8.64;100.00
65880;BME280;52661;51.364;6.054;2023-03-20T10:21:29;101639.53;;;8.69;100.00
65880;BME280;52661;51.364;6.054;2023-03-20T10:24:04;101633.22;;;8.81;100.00
65880;BME280;52661;51.364;6.054;2023-03-20T10:26:34;101644.94;;;8.69;100.00
65880;BME280;52661;51.364;6.054;2023-03-20T10:29:04;101643.97;;;8.77;100.00
65880;BME280;52661;51.364;6.054;2023-03-20T10:31:41;101631.84;;;8.71;100.00
65880;BME280;52661;51.364;6.054;2023-03-20T10:34:23;101646.06;;;8.68;100.00
65880;BME280;52661;51.364;6.054;2023-03-20T10:42:59;101639.25;;;8.74;100.00
65880;BME280;52661;51.364;6.054;2023-03-20T10:45:37;101628.63;;;8.66;100.00
65880;BME280;52661;51.364;6.054;2023-03-20T10:48:10;101635.63;;;8.67;100.00
65880;BME280;52661;51.364;6.054;2023-03-20T10:50:44;101628.44;;;8.74;100.00
65880;BME280;52661;51.364;6.054;2023-03-20T10:53:22;101638.16;;;8.60;100.00
65880;BME280;52661;51.364;6.054;2023-03-20T10:55:49;101633.00;;;8.55;100.00
65880;BME280;52661;51.364;6.054;2023-03-20T10:58:20;101624.31;;;8.80;100.00
65880;BME280;52661;51.364;6.054;2023-03-20T11:00:47;101616.59;;;8.63;100.00
65880;BME280;52661;51.364;6.054;2023-03-20T11:03:26;101622.09;;;8.67;100.00
65880;BME280;52661;51.364;6.054;2023-03-20T11:06:05;101620.81;;;8.80;100.00
65880;BME280;52661;51.364;6.054;2023-03-20T11:08:42;101622.00;;;8.63;100.00
65880;BME280;52661;51.364;6.054;2023-03-20T11:11:10;101614.47;;;8.72;100.00
65880;BME280;52661;51.364;6.054;2023-03-20T11:13:42;101606.16;;;8.81;100.00
65880;BME280;52661;51.364;6.054;2023-03-20T11:18:33;101613.28;;;8.89;100.00
65880;BME280;52661;51.364;6.054;2023-03-20T11:21:00;101608.16;;;9.03;100.00
65880;BME280;52661;51.364;6.054;2023-03-20T11:23:28;101613.28;;;9.27;100.00
65880;BME280;52661;51.364;6.054;2023-03-20T11:25:58;101614.72;;;9.02;100.00
65880;BME280;52661;51.364;6.054;2023-03-20T11:28:36;101618.84;;;8.96;100.00
65880;BME280;52661;51.364;6.054;2023-03-20T11:31:14;101610.88;;;9.03;100.00
65880;BME280;52661;51.364;6.054;2023-03-20T11:36:38;101609.13;;;8.76;100.00
65880;BME280;52661;51.364;6.054;2023-03-20T11:39:11;101614.34;;;8.84;100.00
65880;BME280;52661;51.364;6.054;2023-03-20T11:41:46;101604.38;;;8.88;100.00
65880;BME280;52661;51.364;6.054;2023-03-20T11:47:02;101607.31;;;8.99;100.00
65880;BME280;52661;51.364;6.054;2023-03-20T11:49:30;101603.69;;;9.11;100.00
65880;BME280;52661;51.364;6.054;2023-03-20T11:52:10;101605.09;;;9.05;100.00
65880;BME280;52661;51.364;6.054;2023-03-20T11:54:37;101584.66;;;8.88;100.00
65880;BME280;52661;51.364;6.054;2023-03-20T11:57:03;101591.63;;;8.89;100.00
65880;BME280;52661;51.364;6.054;2023-03-20T11:59:31;101590.84;;;8.88;100.00
65880;BME280;52661;51.364;6.054;2023-03-20T12:01:58;101574.38;;;8.78;100.00
65880;BME280;52661;51.364;6.054;2023-03-20T12:04:30;101576.88;;;8.86;100.00
65880;BME280;52661;51.364;6.054;2023-03-20T12:09:41;101577.25;;;9.04;100.00
65880;BME280;52661;51.364;6.054;2023-03-20T12:14:55;101555.41;;;8.97;100.00
65880;BME280;52661;51.364;6.054;2023-03-20T12:20:45;101563.75;;;9.27;100.00
65880;BME280;52661;51.364;6.054;2023-03-20T12:23:24;101562.81;;;9.38;100.00
65880;BME280;52661;51.364;6.054;2023-03-20T12:26:03;101557.56;;;9.49;100.00
65880;BME280;52661;51.364;6.054;2023-03-20T12:28:57;101548.91;;;9.63;100.00
65880;BME280;52661;51.364;6.054;2023-03-20T12:31:37;101554.88;;;9.49;100.00
65880;BME280;52661;51.364;6.054;2023-03-20T12:34:24;101554.31;;;9.63;100.00
65880;BME280;52661;51.364;6.054;2023-03-20T12:36:53;101552.88;;;9.46;100.00
65880;BME280;52661;51.364;6.054;2023-03-20T12:39:23;101558.44;;;9.53;100.00
65880;BME280;52661;51.364;6.054;2023-03-20T12:44:47;101553.91;;;9.61;100.00
65880;BME280;52661;51.364;6.054;2023-03-20T12:47:30;101544.03;;;9.49;100.00
65880;BME280;52661;51.364;6.054;2023-03-20T12:55:30;101551.78;;;9.73;100.00
65880;BME280;52661;51.364;6.054;2023-03-20T13:00:59;101549.69;;;9.63;100.00
65880;BME280;52661;51.364;6.054;2023-03-20T13:11:15;101536.69;;;9.72;100.00
65880;BME280;52661;51.364;6.054;2023-03-20T13:13:53;101535.19;;;9.75;100.00
65880;BME280;52661;51.364;6.054;2023-03-20T13:19:24;101533.19;;;9.95;100.00
65880;BME280;52661;51.364;6.054;2023-03-20T13:22:12;101531.13;;;9.88;100.00
65880;BME280;52661;51.364;6.054;2023-03-20T13:25:02;101525.41;;;9.93;100.00
65880;BME280;52661;51.364;6.054;2023-03-20T13:27:37;101524.00;;;10.03;100.00
65880;BME280;52661;51.364;6.054;2023-03-20T13:35:38;101520.16;;;9.81;100.00
65880;BME280;52661;51.364;6.054;2023-03-20T13:38:34;101518.78;;;9.91;100.00
65880;BME280;52661;51.364;6.054;2023-03-20T13:41:03;101513.44;;;9.71;100.00
65880;BME280;52661;51.364;6.054;2023-03-20T13:46:11;101511.19;;;9.77;100.00
65880;BME280;52661;51.364;6.054;2023-03-20T13:48:40;101513.66;;;9.85;100.00
65880;BME280;52661;51.364;6.054;2023-03-20T13:51:17;101503.22;;;9.87;100.00
65880;BME280;52661;51.364;6.054;2023-03-20T14:04:01;101499.81;;;10.17;100.00
65880;BME280;52661;51.364;6.054;2023-03-20T14:08:57;101496.63;;;10.38;100.00
65880;BME280;52661;51.364;6.054;2023-03-20T14:14:22;101489.38;;;10.45;100.00
65880;BME280;52661;51.364;6.054;2023-03-20T14:17:05;101503.38;;;10.51;100.00
65880;BME280;52661;51.364;6.054;2023-03-20T14:19:33;101491.09;;;10.60;100.00
65880;BME280;52661;51.364;6.054;2023-03-20T14:21:59;101485.47;;;10.46;100.00
65880;BME280;52661;51.364;6.054;2023-03-20T14:24:26;101488.66;;;10.52;100.00
65880;BME280;52661;51.364;6.054;2023-03-20T14:26:57;101487.94;;;10.55;100.00
65880;BME280;52661;51.364;6.054;2023-03-20T14:34:58;101474.44;;;10.32;100.00
65880;BME280;52661;51.364;6.054;2023-03-20T14:37:28;101476.00;;;10.33;100.00
65880;BME280;52661;51.364;6.054;2023-03-20T14:45:35;101473.78;;;10.42;100.00
65880;BME280;52661;51.364;6.054;2023-03-20T14:51:10;101468.84;;;10.48;100.00
65880;BME280;52661;51.364;6.054;2023-03-20T14:53:40;101468.84;;;10.48;100.00
65880;BME280;52661;51.364;6.054;2023-03-20T14:56:13;101467.91;;;10.36;100.00
65880;BME280;52661;51.364;6.054;2023-03-20T15:01:07;101457.50;;;10.42;100.00
65880;BME280;52661;51.364;6.054;2023-03-20T15:03:35;101448.56;;;10.38;100.00
65880;BME280;52661;51.364;6.054;2023-03-20T15:06:05;101448.69;;;10.49;100.00
65880;BME280;52661;51.364;6.054;2023-03-20T15:08:40;101447.47;;;10.46;100.00
65880;BME280;52661;51.364;6.054;2023-03-20T15:11:09;101441.66;;;10.44;100.00